Time;durP1;ratioP1;P1;durP2;ratioP2;P2;SDS_P1;SDS_P2;PMS_P1;PMS_P2;Temp;Humidity;BMP_temperature;BMP_pressure;BME280_temperature;BME280_humidity;BME280_pressure;Samples;Min_cycle;Max_cycle;Signal;HPM_P1;HPM_P2
2023/02/03 00:00:34;;;;;;;20.77;10.70;;;;;;;2.32;95.96;99805.47;1792841;80;21036;-66
2023/02/03 00:03:03;;;;;;;16.32;9.80;;;;;;;2.32;95.87;99809.02;1792476;80;21072;-65
2023/02/03 00:05:33;;;;;;;16.40;10.13;;;;;;;2.30;95.79;99813.73;1792636;80;21172;-67
2023/02/03 00:08:04;;;;;;;18.52;10.35;;;;;;;2.27;95.67;99814.56;1764690;80;21498;-65
2023/02/03 00:10:34;;;;;;;18.60;10.28;;;;;;;2.25;95.65;99820.63;1792724;80;20985;-66
2023/02/03 00:13:03;;;;;;;20.23;10.53;;;;;;;2.22;95.76;99815.03;1792776;80;21021;-64
2023/02/03 00:15:32;;;;;;;16.73;9.95;;;;;;;2.22;95.80;99813.69;1792816;80;21475;-66
2023/02/03 00:18:01;;;;;;;18.90;9.90;;;;;;;2.21;95.81;99814.19;1792606;80;21036;-67
2023/02/03 00:20:30;;;;;;;20.70;10.30;;;;;;;2.20;95.80;99817.89;1792630;80;21024;-66
2023/02/03 00:23:07;;;;;;;17.57;10.10;;;;;;;2.20;95.89;99817.05;1781064;80;21465;-65
2023/02/03 00:25:37;;;;;;;21.97;11.25;;;;;;;2.21;95.92;99822.80;1759912;81;21033;-65
2023/02/03 00:28:05;;;;;;;21.17;10.90;;;;;;;2.21;95.87;99823.64;1782897;80;21067;-64
2023/02/03 00:30:36;;;;;;;22.13;11.65;;;;;;;2.22;95.86;99817.23;1782662;80;20995;-66
2023/02/03 00:33:06;;;;;;;19.42;10.75;;;;;;;2.22;95.91;99818.59;1782400;80;21522;-65
2023/02/03 00:35:39;;;;;;;17.82;9.85;;;;;;;2.21;95.97;99818.24;1782512;80;21043;-65
2023/02/03 00:38:08;;;;;;;17.25;10.20;;;;;;;2.21;95.93;99823.64;1782575;80;21431;-65
2023/02/03 00:40:37;;;;;;;17.85;10.10;;;;;;;2.19;95.93;99825.66;1782711;80;21012;-65
2023/02/03 00:43:07;;;;;;;20.50;9.88;;;;;;;2.19;95.97;99832.42;1782470;80;21427;-67
2023/02/03 00:45:36;;;;;;;18.70;9.98;;;;;;;2.18;95.89;99825.81;1782639;80;21007;-65
2023/02/03 00:48:06;;;;;;;19.37;10.65;;;;;;;2.17;95.87;99836.28;1782967;80;21492;-66
2023/02/03 00:50:35;;;;;;;19.85;10.72;;;;;;;2.16;95.92;99839.48;1782752;80;21522;-66
2023/02/03 00:53:05;;;;;;;17.10;9.90;;;;;;;2.14;95.87;99833.90;1782466;80;21067;-68
2023/02/03 00:55:34;;;;;;;18.65;10.50;;;;;;;2.13;95.89;99830.84;1782686;80;21018;-66
2023/02/03 00:58:02;;;;;;;17.35;10.30;;;;;;;2.11;95.88;99837.77;1782857;80;21019;-66
2023/02/03 01:00:33;;;;;;;19.20;11.18;;;;;;;2.11;95.91;99832.36;1782712;80;21014;-66
2023/02/03 01:03:03;;;;;;;17.35;10.18;;;;;;;2.11;95.97;99832.36;1782764;80;21046;-66
2023/02/03 01:05:31;;;;;;;18.45;9.98;;;;;;;2.11;95.97;99833.70;1782731;80;21021;-66
2023/02/03 01:08:01;;;;;;;18.55;10.10;;;;;;;2.11;96.10;99836.41;1782690;80;21094;-66
2023/02/03 01:10:30;;;;;;;18.48;9.40;;;;;;;2.13;96.04;99836.25;1782750;80;20999;-66
2023/02/03 01:13:01;;;;;;;18.17;10.00;;;;;;;2.12;96.02;99833.20;1782741;80;21020;-66
2023/02/03 01:15:30;;;;;;;16.97;9.35;;;;;;;2.10;96.10;99832.52;1782794;80;21030;-65
2023/02/03 01:18:00;;;;;;;18.32;9.78;;;;;;;2.11;96.14;99839.11;1782538;80;21019;-67
2023/02/03 01:20:29;;;;;;;20.80;10.35;;;;;;;2.10;96.14;99841.97;1782960;80;21007;-66
2023/02/03 01:22:58;;;;;;;21.48;10.25;;;;;;;2.11;96.15;99838.27;1758645;80;21530;-66
2023/02/03 01:25:29;;;;;;;20.75;9.95;;;;;;;2.11;96.27;99835.06;1789777;80;21022;-65
2023/02/03 01:27:57;;;;;;;19.35;10.55;;;;;;;2.13;96.28;99830.34;1789934;80;21046;-66
2023/02/03 01:30:28;;;;;;;20.08;10.90;;;;;;;2.11;96.13;99826.11;1789816;80;21465;-66
2023/02/03 01:32:58;;;;;;;25.68;10.72;;;;;;;2.10;96.13;99829.31;1789709;80;21053;-66
2023/02/03 01:35:27;;;;;;;22.37;11.10;;;;;;;2.09;96.18;99823.56;1789724;80;21016;-66
2023/02/03 01:37:58;;;;;;;23.05;11.57;;;;;;;2.10;96.19;99831.16;1790019;79;21079;-65
2023/02/03 01:40:27;;;;;;;21.87;10.82;;;;;;;2.07;96.06;99833.68;1789768;80;21450;-66
2023/02/03 01:42:57;;;;;;;23.80;11.28;;;;;;;2.05;96.06;99831.64;1790080;79;21048;-66
2023/02/03 01:45:26;;;;;;;22.73;10.35;;;;;;;2.06;96.17;99828.43;1789898;80;21023;-65
2023/02/03 01:47:55;;;;;;;22.05;10.45;;;;;;;2.08;96.27;99829.97;1789738;79;21007;-66
2023/02/03 01:50:28;;;;;;;23.00;10.32;;;;;;;2.10;96.21;99836.06;1789715;79;21019;-66
2023/02/03 01:53:06;;;;;;;19.02;10.05;;;;;;;2.10;96.26;99830.66;1789686;80;21423;-66
2023/02/03 01:55:37;;;;;;;;;;;;;;;2.14;96.32;99836.09;1792419;80;21018;-66
2023/02/03 05:43:47;;;;;;;34.15;15.63;;;;;;;1.90;98.29;99906.11;1794970;79;28172;-66
2023/02/03 05:46:17;;;;;;;27.05;13.80;;;;;;;1.88;98.10;99903.56;1771928;81;21107;-67
2023/02/03 05:48:47;;;;;;;27.70;12.90;;;;;;;1.88;98.08;99906.77;1771546;81;21193;-65
2023/02/03 05:51:15;;;;;;;30.95;14.63;;;;;;;1.89;98.13;99909.81;1771753;81;21114;-65
2023/02/03 05:53:45;;;;;;;26.95;14.18;;;;;;;1.88;98.17;99913.02;1771601;81;21118;-65
2023/02/03 05:56:14;;;;;;;32.88;13.53;;;;;;;1.92;98.16;99913.55;1771701;81;21621;-65
2023/02/03 05:58:43;;;;;;;58.17;20.55;;;;;;;1.90;98.10;99911.51;1771917;81;21151;-66
2023/02/03 06:01:13;;;;;;;40.92;14.55;;;;;;;1.92;98.19;99912.20;1771867;81;21119;-65
2023/02/03 06:03:43;;;;;;;51.75;15.88;;;;;;;1.93;98.18;99908.50;1771511;81;21111;-66
2023/02/03 06:06:14;;;;;;;60.50;19.10;;;;;;;1.93;98.17;99911.20;1771888;81;21138;-66
2023/02/03 06:08:43;;;;;;;34.13;13.85;;;;;;;1.95;98.21;99909.23;1771601;81;21106;-66
2023/02/03 06:11:12;;;;;;;34.85;13.88;;;;;;;1.97;98.24;99917.17;1771539;81;21608;-66
2023/02/03 06:13:59;;;;;;;37.03;15.00;;;;;;;1.99;98.20;99918.72;1771765;81;21170;-65
2023/02/03 06:16:28;;;;;;;32.73;13.05;;;;;;;2.01;98.25;99916.71;1771800;81;21134;-65
2023/02/03 06:18:59;;;;;;;43.73;16.27;;;;;;;2.05;98.32;99912.69;1771718;81;21122;-66
2023/02/03 06:21:29;;;;;;;50.08;16.37;;;;;;;2.07;98.30;99917.44;1771699;80;21157;-66
2023/02/03 06:23:58;;;;;;;34.27;13.50;;;;;;;2.11;98.37;99921.53;1771478;81;21632;-66
2023/02/03 06:26:29;;;;;;;71.42;19.57;;;;;;;2.15;98.31;99916.66;1771559;81;21608;-67
2023/02/03 06:28:58;;;;;;;52.05;15.63;;;;;;;2.16;98.23;99923.27;1771785;81;21127;-65
2023/02/03 06:31:27;;;;;;;27.73;11.80;;;;;;;2.19;98.21;99924.80;1771527;81;21154;-65
2023/02/03 06:33:58;;;;;;;24.72;11.83;;;;;;;2.21;98.17;99928.20;1771461;81;21126;-66
2023/02/03 06:36:27;;;;;;;51.35;15.10;;;;;;;2.22;98.17;99931.25;1771573;81;21106;-65
2023/02/03 06:38:58;;;;;;;36.13;12.70;;;;;;;2.25;98.16;99931.44;1771917;81;21553;-65
2023/02/03 06:41:29;;;;;;;36.17;14.07;;;;;;;2.25;98.08;99940.39;1771522;81;21115;-65
2023/02/03 06:43:58;;;;;;;31.17;13.20;;;;;;;2.26;97.98;99938.05;1759186;80;21136;-66
2023/02/03 06:46:28;;;;;;;28.95;12.75;;;;;;;2.29;97.96;99940.94;1758616;81;21596;-66
2023/02/03 06:48:57;;;;;;;32.48;13.20;;;;;;;2.30;97.89;99940.78;1758463;81;21173;-66
2023/02/03 06:51:27;;;;;;;26.52;10.78;;;;;;;2.32;97.77;99946.88;1758463;81;21137;-67
2023/02/03 06:53:57;;;;;;;24.55;10.50;;;;;;;2.30;97.43;99943.48;1758488;81;21608;-66
2023/02/03 06:56:27;;;;;;;21.37;10.30;;;;;;;2.28;97.23;99952.75;1758528;81;21550;-67
2023/02/03 06:58:57;;;;;;;22.25;9.90;;;;;;;2.27;97.15;99949.70;1758514;81;21133;-65
2023/02/03 07:01:28;;;;;;;20.70;10.85;;;;;;;2.29;97.00;99950.39;1758556;81;21177;-66
2023/02/03 07:03:57;;;;;;;20.48;9.45;;;;;;;2.31;96.83;99951.09;1758501;81;21109;-66
2023/02/03 07:06:28;;;;;;;22.07;10.23;;;;;;;2.31;96.65;99960.55;1758355;81;21181;-66
2023/02/03 07:08:57;;;;;;;40.52;15.75;;;;;;;2.31;96.44;99956.49;1758643;81;21168;-66
2023/02/03 07:11:27;;;;;;;40.43;15.65;;;;;;;2.33;96.28;99959.89;1758470;81;21576;-66
2023/02/03 07:13:56;;;;;;;28.23;12.00;;;;;;;2.36;96.20;99960.43;1758591;81;21130;-65
2023/02/03 07:16:26;;;;;;;19.02;9.00;;;;;;;2.40;95.99;99965.88;1758643;81;21587;-66
2023/02/03 07:18:57;;;;;;;11.85;6.40;;;;;;;2.40;95.23;99959.61;1729852;81;21525;-66
2023/02/03 07:21:27;;;;;;;17.20;8.85;;;;;;;2.39;95.05;99960.62;1758522;81;21177;-66
2023/02/03 07:23:57;;;;;;;20.25;8.65;;;;;;;2.41;94.93;99959.96;1758421;81;21168;-66
2023/02/03 07:26:33;;;;;;;18.32;8.48;;;;;;;2.44;94.64;99961.84;1758587;81;21237;-66
2023/02/03 07:29:03;;;;;;;;;;;;;;;2.45;94.31;99964.05;1761170;81;21129;-66
2023/02/03 07:31:32;;;;;;;20.88;8.98;;;;;;;2.43;94.02;99970.12;1758759;81;20509;-66
2023/02/03 07:34:01;;;;;;;20.88;8.35;;;;;;;2.33;93.70;99973.41;1758475;81;21145;-68
2023/02/03 07:36:32;;;;;;;13.93;6.90;;;;;;;2.26;93.55;99983.14;1758513;81;21572;-65
2023/02/03 07:39:01;;;;;;;15.05;6.85;;;;;;;2.19;93.58;99981.06;1758570;80;21216;-64
2023/02/03 07:41:30;;;;;;;11.65;5.67;;;;;;;2.16;93.47;99980.02;1758393;81;21149;-64
2023/02/03 07:43:59;;;;;;;7.30;3.92;;;;;;;2.13;93.44;99974.92;1758447;79;21622;-64
2023/02/03 07:46:29;;;;;;;11.38;3.85;;;;;;;2.13;93.40;99983.02;1758848;80;21516;-63
2023/02/03 07:48:59;;;;;;;7.15;3.50;;;;;;;2.11;93.37;99979.63;1758529;81;21176;-63
2023/02/03 07:51:29;;;;;;;7.90;3.47;;;;;;;2.11;93.30;99983.69;1758659;81;21165;-64
2023/02/03 07:53:58;;;;;;;6.08;3.17;;;;;;;2.09;93.30;99986.19;1758472;80;21141;-62
2023/02/03 07:56:29;;;;;;;4.60;2.60;;;;;;;2.06;93.25;99986.50;1758605;81;21140;-65
2023/02/03 07:59:00;;;;;;;14.05;5.25;;;;;;;2.03;93.24;99987.66;1758536;81;21172;-65
2023/02/03 08:01:30;;;;;;;6.45;3.00;;;;;;;2.02;93.29;99989.16;1758533;81;21137;-64
2023/02/03 08:04:00;;;;;;;6.30;3.90;;;;;;;2.02;93.35;99997.27;1758462;81;21200;-66
2023/02/03 08:06:30;;;;;;;8.58;4.10;;;;;;;1.98;93.35;99991.81;1758643;81;21192;-65
2023/02/03 08:09:00;;;;;;;9.85;4.85;;;;;;;1.93;93.45;100004.40;1758586;81;21161;-66
2023/02/03 08:11:31;;;;;;;8.00;3.70;;;;;;;1.90;93.64;100004.70;1758655;80;21157;-64
2023/02/03 08:14:00;;;;;;;12.85;6.08;;;;;;;1.88;93.91;100014.81;1758438;81;21160;-66
2023/02/03 08:16:29;;;;;;;10.00;4.28;;;;;;;1.84;93.99;100002.11;1758734;81;21133;-66
2023/02/03 08:18:58;;;;;;;5.92;3.45;;;;;;;1.80;93.99;100006.61;1758652;81;21586;-64
2023/02/03 08:21:28;;;;;;;7.90;3.90;;;;;;;1.78;94.00;100013.52;1758461;81;21196;-66
2023/02/03 08:23:56;;;;;;;10.63;4.45;;;;;;;1.76;94.00;100006.57;1758668;81;21137;-65
2023/02/03 08:26:25;;;;;;;7.25;3.70;;;;;;;1.74;94.05;100010.77;1758443;81;21105;-63
2023/02/03 08:28:54;;;;;;;9.15;4.60;;;;;;;1.73;94.10;100013.63;1758521;81;21177;-64
2023/02/03 08:31:24;;;;;;;13.53;6.28;;;;;;;1.74;94.23;100018.02;1758651;81;21161;-65
2023/02/03 08:33:54;;;;;;;12.35;5.97;;;;;;;1.75;94.23;100019.22;1758549;81;21137;-66
2023/02/03 08:36:24;;;;;;;7.15;4.20;;;;;;;1.76;94.24;100020.07;1758462;81;21109;-65
2023/02/03 08:38:54;;;;;;;12.25;5.40;;;;;;;1.77;94.25;100033.42;1758456;81;21172;-65
2023/02/03 08:41:23;;;;;;;8.20;4.78;;;;;;;1.78;94.28;100030.22;1758729;81;21137;-66
2023/02/03 08:43:54;;;;;;;13.18;5.92;;;;;;;1.80;94.13;100029.57;1758366;81;21560;-65
2023/02/03 08:46:25;;;;;;;19.57;8.18;;;;;;;1.79;94.20;100033.27;1758448;80;21646;-67
2023/02/03 08:48:58;;;;;;;10.40;4.65;;;;;;;1.78;94.03;100032.92;1758492;81;21121;-65
2023/02/03 08:51:28;;;;;;;11.45;5.08;;;;;;;1.74;93.73;100035.58;1758743;81;21213;-65
2023/02/03 08:53:58;;;;;;;10.13;5.30;;;;;;;1.70;93.70;100040.42;1758396;81;21160;-64
2023/02/03 08:56:27;;;;;;;12.07;5.42;;;;;;;1.66;93.68;100040.87;1758460;81;21129;-66
2023/02/03 08:58:55;;;;;;;13.43;6.40;;;;;;;1.63;93.79;100045.23;1758584;81;22185;-65
2023/02/03 09:01:25;;;;;;;13.38;7.37;;;;;;;1.58;93.91;100038.92;1757257;80;21523;-64
2023/02/03 09:03:53;;;;;;;16.32;7.22;;;;;;;1.56;94.04;100041.77;1747420;80;21165;-65
2023/02/03 09:06:24;;;;;;;18.00;8.43;;;;;;;1.57;94.25;100039.92;1739297;82;21579;-65
2023/02/03 09:09:01;;;;;;;15.10;7.45;;;;;;;1.61;94.39;100043.17;1689777;85;21633;-67
2023/02/03 09:11:30;;;;;;;14.85;7.70;;;;;;;1.61;94.49;100036.42;1681974;85;21217;-65
2023/02/03 09:13:59;;;;;;;18.40;7.87;;;;;;;1.62;94.61;100037.63;1695777;83;21178;-67
2023/02/03 09:16:29;;;;;;;17.17;7.90;;;;;;;1.65;94.76;100044.58;1702674;84;21131;-65
2023/02/03 09:18:59;;;;;;;19.95;8.25;;;;;;;1.68;94.75;100040.23;1702818;84;21130;-66
2023/02/03 09:21:28;;;;;;;15.88;7.20;;;;;;;1.72;94.78;100041.13;1701527;84;21197;-67
2023/02/03 09:24:02;;;;;;;19.48;8.10;;;;;;;1.75;94.75;100041.33;1699796;84;21178;-68
2023/02/03 09:26:30;;;;;;;19.77;7.72;;;;;;;1.76;94.68;100041.68;1701618;83;21166;-68
2023/02/03 09:28:59;;;;;;;16.75;7.58;;;;;;;1.78;94.47;100043.23;1701643;84;21655;-67
2023/02/03 09:31:29;;;;;;;14.93;7.08;;;;;;;1.75;94.39;100035.42;1701501;84;21138;-67
2023/02/03 09:33:59;;;;;;;23.15;7.95;;;;;;;1.80;94.60;100035.83;1614361;88;21599;-68
2023/02/03 09:36:28;;;;;;;21.23;9.38;;;;;;;1.87;94.58;100036.07;1615180;88;21207;-67
2023/02/03 09:38:57;;;;;;;16.27;7.33;;;;;;;1.92;94.53;100040.52;1618913;88;21602;-67
2023/02/03 09:41:49;;;;;;;19.02;7.97;;;;;;;1.94;94.26;100030.41;1597831;88;21167;-66
2023/02/03 09:44:23;;;;;;;22.52;9.53;;;;;;;1.90;93.87;100027.16;1632971;85;21161;-69
2023/02/03 09:47:03;;;;;;;22.62;8.90;;;;;;;1.97;93.97;100029.29;1822112;77;22617;-67
2023/02/03 09:49:46;;;;;;;20.97;6.83;;;;;;;1.98;93.90;100035.89;1753773;82;21146;-67
2023/02/03 09:52:21;;;;;;;12.20;5.95;;;;;;;1.99;93.71;100038.09;1785157;80;21139;-68
2023/02/03 09:55:24;;;;;;;14.90;6.97;;;;;;;1.99;93.25;100028.64;1753690;82;21194;-69
2023/02/03 09:58:07;;;;;;;16.15;6.65;;;;;;;2.00;93.19;100027.14;1730130;82;21178;-68
2023/02/03 10:00:45;;;;;;;14.68;6.75;;;;;;;2.03;92.72;100033.59;1753660;82;21138;-68
2023/02/03 10:03:25;;;;;;;18.07;6.92;;;;;;;2.02;92.25;100035.94;1753648;81;21618;-70
2023/02/03 10:06:05;;;;;;;14.03;7.20;;;;;;;2.03;92.08;100030.88;1753772;82;21122;-67
2023/02/03 10:08:56;;;;;;;12.78;6.75;;;;;;;2.07;92.02;100032.78;1753990;82;21126;-68
2023/02/03 10:11:52;;;;;;;13.55;6.42;;;;;;;2.09;91.79;100033.48;1740712;82;21112;-66
2023/02/03 10:14:41;;;;;;;12.88;6.58;;;;;;;2.10;91.41;100042.78;1747915;82;21558;-67
2023/02/03 10:17:33;;;;;;;16.40;7.10;;;;;;;2.11;91.09;100040.43;1747815;82;21198;-66
2023/02/03 10:20:20;;;;;;;14.83;6.42;;;;;;;2.11;90.70;100030.97;1726089;83;21143;-66
2023/02/03 10:22:58;;;;;;;18.95;7.20;;;;;;;2.15;90.51;100022.91;1747995;82;21170;-67
2023/02/03 10:25:54;;;;;;;14.30;7.08;;;;;;;2.21;90.37;100025.50;1726301;83;21163;-68
2023/02/03 10:28:29;;;;;;;10.63;5.62;;;;;;;2.22;89.99;100019.09;1747802;82;21229;-67
2023/02/03 10:31:00;;;;;;;9.68;4.90;;;;;;;2.25;90.13;100019.28;1748093;81;21135;-67
2023/02/03 10:33:30;;;;;;;9.53;5.05;;;;;;;2.27;89.10;100017.28;1726209;82;21123;-66
2023/02/03 10:36:14;;;;;;;12.13;5.50;;;;;;;2.22;88.46;100011.83;1748104;82;21191;-67
2023/02/03 10:39:42;;;;;;;12.35;5.05;;;;;;;2.25;88.47;100017.94;1726164;82;21123;-66
2023/02/03 10:42:12;;;;;;;11.57;5.62;;;;;;;2.29;88.49;100017.47;1662329;86;21214;-66
2023/02/03 10:44:50;;;;;;;10.32;4.80;;;;;;;2.35;88.32;100016.00;1634144;88;21225;-66
2023/02/03 10:47:35;;;;;;;10.95;5.40;;;;;;;2.35;88.02;100014.15;1667971;86;21169;-68
2023/02/03 10:50:16;;;;;;;13.43;5.78;;;;;;;2.36;87.85;100018.55;1666606;86;21166;-69
2023/02/03 10:52:45;;;;;;;9.98;5.70;;;;;;;2.36;87.52;100015.00;1661329;86;21150;-68
2023/02/03 10:55:30;;;;;;;12.03;5.62;;;;;;;2.36;87.01;100015.84;1662571;85;21162;-69
2023/02/03 10:57:59;;;;;;;13.32;6.30;;;;;;;2.36;87.03;100010.44;1662165;86;21198;-69
2023/02/03 11:00:32;;;;;;;12.93;5.60;;;;;;;2.39;86.87;100009.28;1611664;86;21664;-66
2023/02/03 11:03:08;;;;;;;13.10;6.10;;;;;;;2.37;86.65;100002.68;1661908;86;21584;-67
2023/02/03 11:05:37;;;;;;;10.32;5.17;;;;;;;2.38;86.44;100006.23;1661949;86;21233;-73
2023/02/03 11:08:16;;;;;;;12.50;5.85;;;;;;;2.37;86.42;99999.97;1661980;86;21182;-66
2023/02/03 11:10:45;;;;;;;14.07;6.12;;;;;;;2.40;86.31;100003.72;1665994;85;21592;-69
2023/02/03 11:13:23;;;;;;;8.40;4.40;;;;;;;2.44;86.37;99997.00;1682400;85;21159;-67
2023/02/03 11:16:01;;;;;;;13.40;5.85;;;;;;;2.49;86.14;99999.23;1682582;85;21127;-67
2023/02/03 11:18:44;;;;;;;11.60;5.83;;;;;;;2.52;85.79;99991.66;1682459;85;21186;-66
2023/02/03 11:21:20;;;;;;;11.78;5.90;;;;;;;2.54;85.09;100003.67;1682522;85;21202;-70
2023/02/03 11:24:20;;;;;;;13.95;6.67;;;;;;;2.52;84.81;99994.87;1682592;85;21601;-66
2023/02/03 11:27:14;;;;;;;10.15;5.67;;;;;;;2.52;84.45;99994.36;1682285;85;21162;-65
2023/02/03 11:29:46;;;;;;;9.18;4.95;;;;;;;2.52;84.35;100005.18;1682671;85;21579;-68
2023/02/03 11:32:24;;;;;;;6.70;4.17;;;;;;;2.53;84.81;100003.33;1682538;85;21158;-67
2023/02/03 11:35:02;;;;;;;7.87;4.30;;;;;;;2.57;84.53;99992.54;1682673;85;21175;-68
2023/02/03 11:37:36;;;;;;;10.75;4.95;;;;;;;2.55;83.95;99993.20;1682749;85;21263;-68
2023/02/03 11:40:13;;;;;;;9.70;5.28;;;;;;;2.56;83.96;99992.20;1683192;85;21143;-70
2023/02/03 11:42:54;;;;;;;6.37;4.05;;;;;;;2.57;83.24;99991.19;1687044;84;21146;-69
2023/02/03 11:45:35;;;;;;;10.88;6.33;;;;;;;2.53;82.44;99987.10;1659992;86;21214;-69
2023/02/03 11:48:34;;;;;;;8.58;5.10;;;;;;;2.51;81.56;99997.22;1683303;85;21248;-68
2023/02/03 11:51:38;;;;;;;6.70;3.40;;;;;;;2.48;80.84;99991.63;1643092;87;21193;-68
2023/02/03 11:54:42;;;;;;;5.35;2.98;;;;;;;2.48;80.69;99984.86;1643011;87;21201;-73
2023/02/03 11:57:18;;;;;;;;;;;;;;;2.45;80.31;99986.53;1671766;86;21138;-70
2023/02/03 12:00:21;;;;;;;9.58;4.90;;;;;;;2.44;79.97;99983.48;1669721;86;20152;-70
2023/02/03 12:02:56;;;;;;;7.53;3.42;;;;;;;2.39;79.89;99979.55;1669827;86;21241;-70
2023/02/03 12:05:55;;;;;;;6.08;3.47;;;;;;;2.37;80.05;99982.41;1669646;86;21152;-68
2023/02/03 12:09:03;;;;;;;6.67;2.62;;;;;;;2.37;79.95;99980.20;1669688;86;21184;-68
2023/02/03 12:11:44;;;;;;;4.65;2.20;;;;;;;2.34;79.37;99982.72;1654807;86;21191;-69
2023/02/03 12:14:34;;;;;;;4.83;2.62;;;;;;;2.31;79.13;99970.02;1641439;87;21878;-68
2023/02/03 12:17:26;;;;;;;4.00;2.40;;;;;;;2.28;79.20;99981.13;1641357;87;21211;-68
2023/02/03 12:20:50;;;;;;;5.45;2.90;;;;;;;2.23;78.77;99972.98;1615202;87;21568;-68
2023/02/03 12:23:39;;;;;;;6.72;3.20;;;;;;;2.17;78.58;99976.31;1615295;89;21191;-71
2023/02/03 12:26:22;;;;;;;6.33;3.52;;;;;;;2.14;78.86;99973.06;1615522;87;21260;-68
2023/02/03 12:29:24;;;;;;;5.30;3.17;;;;;;;2.15;79.07;99978.31;1638747;87;21192;-71
2023/02/03 12:32:32;;;;;;;5.97;2.62;;;;;;;2.12;78.67;99979.13;1638772;87;21653;-68
2023/02/03 12:35:39;;;;;;;4.90;2.65;;;;;;;2.09;79.12;99980.28;1639304;87;21180;-67
2023/02/03 12:38:35;;;;;;;5.65;2.70;;;;;;;2.06;79.02;99983.30;1642824;86;21202;-69
2023/02/03 12:41:09;;;;;;;5.47;2.90;;;;;;;2.04;79.36;99990.70;1658008;86;21190;-68
2023/02/03 12:43:48;;;;;;;12.10;4.58;;;;;;;2.04;79.61;99991.20;1645500;85;21640;-68
2023/02/03 12:46:44;;;;;;;4.55;2.77;;;;;;;2.07;79.97;99990.90;1648733;86;21155;-67
2023/02/03 12:49:28;;;;;;;6.12;3.10;;;;;;;2.11;80.22;99989.59;1619448;87;21186;-74
2023/02/03 12:52:03;;;;;;;5.62;3.27;;;;;;;2.10;80.03;99990.09;1645915;87;21170;-71
2023/02/03 12:54:56;;;;;;;6.50;3.60;;;;;;;2.13;80.15;99988.43;1647021;87;21129;-67
2023/02/03 12:58:06;;;;;;;9.20;4.60;;;;;;;2.17;79.97;99993.87;1619155;88;21206;-69
2023/02/03 13:00:47;;;;;;;11.78;6.03;;;;;;;2.19;79.38;99989.67;1618826;87;21760;-72
2023/02/03 13:03:29;;;;;;;8.78;5.30;;;;;;;2.17;78.50;99991.17;1638967;87;21154;-68
2023/02/03 15:25:03;;;;;;;10.10;3.73;;;;;;;0.95;81.06;100001.77;1832971;77;24669;-60
2023/02/03 15:27:40;;;;;;;9.70;4.50;;;;;;;0.90;81.29;100004.05;1788747;79;21110;-62
2023/02/03 15:30:27;;;;;;;8.63;4.35;;;;;;;0.91;81.57;100003.55;1758698;80;21124;-61
2023/02/03 15:33:12;;;;;;;12.07;3.87;;;;;;;0.92;81.66;100003.91;1788679;80;21113;-62
2023/02/03 15:35:59;;;;;;;11.22;3.85;;;;;;;0.95;82.01;100008.51;1789230;79;21683;-63
2023/02/03 15:38:51;;;;;;;11.15;5.42;;;;;;;1.00;82.19;100004.02;1768582;75;21674;-59
2023/02/03 15:41:24;;;;;;;6.70;3.30;;;;;;;1.03;82.27;100014.52;1748694;80;21562;-59
2023/02/03 15:44:00;;;;;;;5.45;3.10;;;;;;;1.07;82.48;100007.84;1722752;81;21504;-58
2023/02/03 15:46:41;;;;;;;6.72;3.15;;;;;;;1.10;82.31;100009.39;1761321;81;21610;-59
2023/02/03 15:49:24;;;;;;;7.85;4.65;;;;;;;1.09;81.87;100005.84;1635751;87;21605;-60
2023/02/03 15:52:01;;;;;;;5.40;2.87;;;;;;;1.04;81.24;100005.93;1694252;84;21205;-60
2023/02/03 15:54:39;;;;;;;4.65;2.50;;;;;;;1.00;81.02;100008.56;1674028;84;21203;-58
2023/02/03 15:57:19;;;;;;;5.25;3.42;;;;;;;0.96;80.75;100018.80;1697198;83;21149;-59
2023/02/03 16:00:03;;;;;;;7.22;4.15;;;;;;;0.92;80.63;100014.20;1634025;88;21280;-58
2023/02/03 16:02:41;;;;;;;8.65;4.33;;;;;;;0.92;80.61;100015.55;1535519;92;21161;-59
2023/02/03 16:05:28;;;;;;;7.10;4.22;;;;;;;0.94;80.83;100016.75;1538124;92;21630;-59
2023/02/03 16:08:36;;;;;;;7.05;4.30;;;;;;;0.94;80.82;100014.05;1603493;88;21618;-60
2023/02/03 16:11:33;;;;;;;5.12;3.50;;;;;;;0.93;80.98;100016.39;1615192;88;21204;-60
2023/02/03 16:14:06;;;;;;;8.00;3.47;;;;;;;0.94;80.74;100015.40;1615827;89;21670;-58
2023/02/03 16:16:44;;;;;;;6.87;3.50;;;;;;;0.92;80.63;100013.34;1575242;89;21177;-59
2023/02/03 16:19:20;;;;;;;7.20;3.75;;;;;;;0.94;80.69;100014.90;1666774;85;21272;-60
2023/02/03 16:21:54;;;;;;;8.40;3.85;;;;;;;0.97;80.73;100011.06;1774841;80;21169;-59
2023/02/03 16:24:44;;;;;;;8.60;4.08;;;;;;;0.99;80.68;100006.87;1760837;80;21114;-59
2023/02/03 16:27:29;;;;;;;13.40;5.80;;;;;;;0.99;80.68;100010.91;1780214;80;21182;-59
2023/02/03 16:53:23;;;;;;;4.50;2.70;;;;;;;0.97;80.06;100006.16;1686569;83;21185;-63
2023/02/03 16:55:54;;;;;;;5.45;3.10;;;;;;;0.90;79.89;100009.44;1608837;88;21189;-61
2023/02/03 16:58:24;;;;;;;7.25;3.42;;;;;;;0.88;80.32;100011.44;1607557;88;21173;-61
2023/02/03 17:00:57;;;;;;;6.10;2.92;;;;;;;0.89;80.60;100012.28;1628520;88;21153;-61
2023/02/03 17:03:27;;;;;;;8.05;3.60;;;;;;;0.90;80.70;100014.84;1645418;85;21305;-59
2023/02/03 17:05:57;;;;;;;5.85;2.85;;;;;;;0.89;80.78;100009.09;1683776;85;21517;-60
2023/02/03 17:08:26;;;;;;;5.95;2.70;;;;;;;0.89;80.71;100008.24;1660842;85;21176;-59
2023/02/03 17:11:05;;;;;;;8.23;4.00;;;;;;;0.86;80.67;100003.14;1627465;88;21209;-61
2023/02/03 17:13:35;;;;;;;21.85;9.38;;;;;;;0.83;80.77;100005.63;1627320;88;21146;-58
2023/02/03 17:16:18;;;;;;;8.65;4.00;;;;;;;0.79;80.88;100002.87;1605393;88;21154;-59
2023/02/03 17:18:48;;;;;;;7.17;3.27;;;;;;;0.79;80.96;100000.67;1606704;88;21206;-59
2023/02/03 17:21:22;;;;;;;6.95;3.12;;;;;;;0.76;80.69;100004.51;1680037;85;21638;-60
2023/02/03 17:23:52;;;;;;;5.75;3.08;;;;;;;0.76;80.69;100010.40;1691308;85;21214;-60
2023/02/03 17:26:22;;;;;;;6.05;2.80;;;;;;;0.75;80.59;100003.30;1691466;85;21107;-59
2023/02/03 17:28:51;;;;;;;5.92;2.30;;;;;;;0.75;80.53;100005.50;1694231;82;21121;-59
2023/02/03 17:31:20;;;;;;;4.83;2.55;;;;;;;0.72;79.95;100003.09;1748898;81;21196;-60
2023/02/03 17:33:50;;;;;;;3.72;2.20;;;;;;;0.71;79.88;100003.24;1740278;82;21165;-60
2023/02/03 17:36:20;;;;;;;4.60;2.60;;;;;;;0.69;79.33;100000.69;1671194;85;21171;-61
2023/02/03 17:38:57;;;;;;;6.65;2.90;;;;;;;0.69;79.15;100002.04;1743238;81;21225;-60
2023/02/03 17:41:45;;;;;;;4.28;2.35;;;;;;;0.69;79.04;100004.73;1689023;84;21554;-60
2023/02/03 17:44:35;;;;;;;4.90;2.08;;;;;;;0.71;78.58;100008.63;1704770;84;21277;-61
2023/02/03 17:47:22;;;;;;;5.42;2.62;;;;;;;0.69;78.12;100006.08;1704878;83;21649;-63
2023/02/03 17:50:10;;;;;;;4.45;2.10;;;;;;;0.66;77.25;100007.72;1704857;84;21107;-59
2023/02/03 17:52:58;;;;;;;7.28;2.27;;;;;;;0.64;77.09;100004.28;1704953;83;21144;-59
2023/02/03 17:55:32;;;;;;;6.78;2.60;;;;;;;0.61;77.15;100000.53;1685914;84;21175;-58
2023/02/03 17:58:01;;;;;;;6.97;2.95;;;;;;;0.64;77.35;100002.94;1704638;83;21130;-59
2023/02/03 18:00:31;;;;;;;11.75;2.80;;;;;;;0.66;77.02;100002.33;1704796;83;21194;-59
2023/02/03 18:03:01;;;;;;;8.08;5.10;;;;;;;0.67;76.85;100005.38;1626069;87;21606;-59
2023/02/03 18:05:31;;;;;;;5.20;3.10;;;;;;;0.69;76.75;100006.58;1625620;86;21641;-61
2023/02/03 18:08:01;;;;;;;5.05;2.55;;;;;;;0.69;76.59;100011.48;1597591;90;21146;-59
2023/02/03 18:10:34;;;;;;;6.22;2.83;;;;;;;0.67;76.01;100014.81;1595992;90;21209;-60
2023/02/03 18:13:04;;;;;;;5.80;2.85;;;;;;;0.62;75.96;100006.27;1598807;90;21600;-60
2023/02/03 18:15:36;;;;;;;10.05;3.30;;;;;;;0.61;75.98;99997.33;1599001;90;21210;-59
2023/02/03 18:18:07;;;;;;;13.40;4.53;;;;;;;0.62;76.07;100003.08;1599036;90;21146;-60
2023/02/03 18:20:38;;;;;;;10.35;3.47;;;;;;;0.64;76.12;100002.94;1623664;85;21135;-58
2023/02/03 18:23:07;;;;;;;7.28;3.42;;;;;;;0.66;76.24;100000.13;1686791;83;21543;-60
2023/02/03 18:25:37;;;;;;;6.42;2.90;;;;;;;0.68;76.23;100000.34;1686893;84;21127;-59
2023/02/03 18:28:06;;;;;;;4.58;2.25;;;;;;;0.68;76.04;100001.69;1658319;85;21583;-60
2023/02/03 18:30:37;;;;;;;6.22;2.85;;;;;;;0.66;75.65;100002.33;1686719;84;21200;-60
2023/02/03 18:33:08;;;;;;;8.63;3.30;;;;;;;0.64;75.55;99997.55;1680469;84;21147;-60
2023/02/03 18:35:39;;;;;;;5.83;3.00;;;;;;;0.63;75.53;99999.88;1686902;83;21573;-60
2023/02/03 18:38:08;;;;;;;10.43;4.10;;;;;;;0.61;75.65;99995.14;1664486;84;21190;-59